Time;durP1;ratioP1;P1;durP2;ratioP2;P2;SDS_P1;SDS_P2;PMS_P1;PMS_P2;Temp;Humidity;BMP_temperature;BMP_pressure;BME280_temperature;BME280_humidity;BME280_pressure;Samples;Min_cycle;Max_cycle;Signal;HPM_P1;HPM_P2
2022/05/17 00:01:46;;;;;;;;;;;;;;;22.05;47.74;99884.41;4384879;32;20033;-83
2022/05/17 00:04:14;;;;;;;;;;;;;;;22.01;47.74;99878.31;4384579;32;19986;-90
2022/05/17 00:06:40;;;;;;;;;;;;;;;22.14;47.39;99881.44;4384103;32;20046;-86
2022/05/17 00:09:07;;;;;;;;;;;;;;;22.00;48.32;99878.37;4384514;32;20672;-88
2022/05/17 00:11:36;;;;;;;;;;;;;;;21.76;49.33;99865.03;4384278;32;19978;-84
2022/05/17 00:14:03;;;;;;;;;;;;;;;21.87;48.80;99861.22;4383800;32;20328;-83
2022/05/17 00:16:30;;;;;;;;;;;;;;;21.88;48.87;99860.28;4386377;32;19991;-91
2022/05/17 00:18:57;;;;;;;;;;;;;;;21.92;48.81;99856.66;4385316;32;20321;-84
2022/05/17 00:21:24;;;;;;;;;;;;;;;21.85;48.86;99855.13;4386421;32;20036;-83
2022/05/17 00:23:51;;;;;;;;;;;;;;;21.87;48.67;99859.44;4384384;32;20320;-84
2022/05/17 00:26:18;;;;;;;;;;;;;;;21.78;48.71;99855.28;4385731;32;19991;-83
2022/05/17 00:28:45;;;;;;;;;;;;;;;21.81;48.53;99855.22;4379211;32;20042;-87
2022/05/17 00:31:11;;;;;;;;;;;;;;;21.78;48.73;99855.28;4385927;32;19993;-83
2022/05/17 00:33:38;;;;;;;;;;;;;;;21.51;49.56;99848.22;4386019;32;20000;-87
2022/05/17 00:36:05;;;;;;;;;;;;;;;21.63;49.33;99845.19;4386104;32;19974;-83
2022/05/17 00:38:32;;;;;;;;;;;;;;;21.58;49.29;99853.25;4385642;32;20077;-83
2022/05/17 00:40:59;;;;;;;;;;;;;;;21.66;48.86;99852.16;4386256;32;20057;-83
2022/05/17 00:43:28;;;;;;;;;;;;;;;21.44;49.43;99850.16;4384760;32;20042;-83
2022/05/17 00:45:57;;;;;;;;;;;;;;;21.47;49.78;99851.81;4385700;32;20070;-83
2022/05/17 00:48:24;;;;;;;;;;;;;;;21.39;50.09;99851.19;4384054;32;19978;-83
2022/05/17 00:50:51;;;;;;;;;;;;;;;21.42;50.05;99844.06;4385405;32;19982;-83
2022/05/17 00:53:27;;;;;;;;;;;;;;;21.41;49.83;99844.09;4384469;32;20780;-85
2022/05/17 00:55:59;;;;;;;;;;;;;;;21.45;49.88;99837.84;4384948;32;19997;-82
2022/05/17 00:58:27;;;;;;;;;;;;;;;21.26;49.71;99842.75;4385232;32;20050;-82
2022/05/17 01:01:02;;;;;;;;;;;;;;;21.28;49.77;99844.44;4386113;32;20000;-84
2022/05/17 01:03:30;;;;;;;;;;;;;;;21.37;49.61;99835.41;4383599;32;20050;-85
2022/05/17 01:05:57;;;;;;;;;;;;;;;21.35;49.91;99829.34;4384586;32;20023;-83
2022/05/17 01:08:25;;;;;;;;;;;;;;;21.22;50.26;99833.19;4378400;32;20038;-85
2022/05/17 01:10:52;;;;;;;;;;;;;;;21.20;49.70;99825.34;4385970;32;19995;-83
2022/05/17 01:16:04;;;;;;;;;;;;;;;21.44;49.94;99822.94;4384672;32;19982;-82
2022/05/17 01:18:32;;;;;;;;;;;;;;;21.39;50.32;99819.59;4384855;32;20057;-82
2022/05/17 01:20:59;;;;;;;;;;;;;;;21.16;50.72;99826.34;4386209;32;19986;-83
2022/05/17 01:23:26;;;;;;;;;;;;;;;21.22;50.80;99827.91;4385726;32;20017;-82
2022/05/17 01:25:53;;;;;;;;;;;;;;;21.19;51.39;99818.34;4384782;32;19975;-83
2022/05/17 01:28:21;;;;;;;;;;;;;;;21.24;51.18;99821.69;4385403;32;20021;-86
2022/05/17 01:30:47;;;;;;;;;;;;;;;21.36;50.92;99821.41;4384678;32;20026;-85
2022/05/17 01:33:15;;;;;;;;;;;;;;;21.48;50.80;99824.59;4385304;32;20027;-84
2022/05/17 01:35:43;;;;;;;;;;;;;;;21.40;50.89;99823.94;4382899;32;20037;-85
2022/05/17 01:38:10;;;;;;;;;;;;;;;21.45;50.60;99820.28;4384607;32;20338;-83
2022/05/17 01:40:37;;;;;;;;;;;;;;;21.54;50.37;99820.00;4383698;32;20370;-89
2022/05/17 01:43:04;;;;;;;;;;;;;;;21.33;51.09;99821.44;4384367;32;20010;-87
2022/05/17 01:45:32;;;;;;;;;;;;;;;21.30;51.32;99816.25;4386123;32;20050;-83
2022/05/17 01:47:59;;;;;;;;;;;;;;;21.41;50.73;99818.66;4388355;32;19982;-87
2022/05/17 01:50:26;;;;;;;;;;;;;;;21.37;51.19;99815.22;4385536;32;20034;-83
2022/05/17 01:52:54;;;;;;;;;;;;;;;21.47;50.35;99807.91;4384492;32;19986;-83
2022/05/17 01:55:21;;;;;;;;;;;;;;;21.43;50.88;99810.69;4385135;32;19979;-84
2022/05/17 01:57:49;;;;;;;;;;;;;;;21.41;51.49;99801.97;4385992;32;19997;-84
2022/05/17 02:00:16;;;;;;;;;;;;;;;21.43;50.52;99810.69;4385150;32;20129;-85
2022/05/17 02:02:43;;;;;;;;;;;;;;;21.31;50.56;99807.47;4385544;32;20030;-84
2022/05/17 02:05:15;;;;;;;;;;;;;;;21.52;50.65;99811.28;4385070;32;20028;-82
2022/05/17 02:07:42;;;;;;;;;;;;;;;21.45;50.66;99822.91;4368600;32;20004;-89
2022/05/17 02:10:09;;;;;;;;;;;;;;;21.56;50.82;99815.53;4385246;32;20359;-83
2022/05/17 02:12:36;;;;;;;;;;;;;;;21.44;51.28;99809.78;4385786;32;19987;-85
2022/05/17 02:15:04;;;;;;;;;;;;;;;21.48;50.62;99814.06;4385419;32;21011;-87
2022/05/17 02:17:31;;;;;;;;;;;;;;;21.56;49.92;99801.50;4384469;32;20038;-84
2022/05/17 02:20:02;;;;;;;;;;;;;;;21.48;50.55;99803.53;4385565;32;20048;-83
2022/05/17 02:22:29;;;;;;;;;;;;;;;20.88;51.36;99795.50;4386844;32;20008;-83
2022/05/17 02:24:55;;;;;;;;;;;;;;;21.33;50.11;99803.00;4386186;32;20092;-84
2022/05/17 02:27:23;;;;;;;;;;;;;;;21.12;50.65;99795.72;4385511;32;20045;-84
2022/05/17 02:29:49;;;;;;;;;;;;;;;21.26;50.72;99790.94;4384896;32;20037;-87
2022/05/17 02:32:16;;;;;;;;;;;;;;;21.49;49.98;99799.97;4385941;32;19978;-82
2022/05/17 02:34:43;;;;;;;;;;;;;;;21.54;49.75;99803.34;4385824;32;20796;-83
2022/05/17 02:37:10;;;;;;;;;;;;;;;21.58;50.15;99804.97;4370162;32;20005;-85
2022/05/17 02:39:37;;;;;;;;;;;;;;;21.77;49.67;99811.41;4384440;32;20046;-85
2022/05/17 02:42:04;;;;;;;;;;;;;;;21.72;49.82;99807.19;4385100;32;20679;-87
2022/05/17 02:44:31;;;;;;;;;;;;;;;21.65;50.25;99803.87;4385430;32;20301;-86
2022/05/17 02:46:58;;;;;;;;;;;;;;;21.63;50.43;99810.97;4384756;32;20005;-85
2022/05/17 02:49:25;;;;;;;;;;;;;;;21.74;50.59;99819.41;4370450;32;19995;-83
2022/05/17 02:51:54;;;;;;;;;;;;;;;21.48;51.95;99814.06;4369444;32;20034;-87
2022/05/17 02:54:21;;;;;;;;;;;;;;;21.76;50.57;99809.72;4385304;32;19986;-83
2022/05/17 02:56:48;;;;;;;;;;;;;;;21.76;50.16;99808.81;4383766;32;19983;-90
2022/05/17 02:59:18;;;;;;;;;;;;;;;21.81;50.13;99818.31;4383871;32;19991;-90
2022/05/17 03:01:45;;;;;;;;;;;;;;;21.82;51.11;99820.06;4384557;32;19975;-84
2022/05/17 03:04:15;;;;;;;;;;;;;;;21.89;51.41;99815.47;4384713;32;19993;-86
2022/05/17 03:06:44;;;;;;;;;;;;;;;21.77;50.44;99832.50;4383899;32;19986;-84
2022/05/17 03:09:10;;;;;;;;;;;;;;;21.77;50.91;99837.78;4384618;32;20013;-85
2022/05/17 03:11:42;;;;;;;;;;;;;;;21.68;51.09;99827.50;4385420;32;20297;-85
2022/05/17 03:14:12;;;;;;;;;;;;;;;21.81;50.79;99839.41;4383778;32;19982;-82
2022/05/17 03:16:40;;;;;;;;;;;;;;;21.87;50.10;99837.50;4384831;32;20009;-83
2022/05/17 03:19:07;;;;;;;;;;;;;;;21.95;50.00;99835.47;4384062;32;20041;-84
2022/05/17 03:21:34;;;;;;;;;;;;;;;21.92;49.85;99831.19;4384891;32;20073;-89
2022/05/17 03:24:01;;;;;;;;;;;;;;;22.02;49.33;99821.22;4385298;32;19983;-85
2022/05/17 03:26:31;;;;;;;;;;;;;;;21.87;49.91;99833.09;4383737;32;19982;-87
2022/05/17 03:28:58;;;;;;;;;;;;;;;21.85;50.14;99829.62;4384954;32;20046;-84
2022/05/17 03:31:25;;;;;;;;;;;;;;;22.00;49.63;99837.06;4383664;32;19990;-87
2022/05/17 03:33:53;;;;;;;;;;;;;;;21.90;50.10;99837.41;4383986;32;20030;-84
2022/05/17 03:36:19;;;;;;;;;;;;;;;21.93;49.75;99842.59;4384742;32;20006;-86
2022/05/17 03:38:46;;;;;;;;;;;;;;;22.14;49.20;99835.78;4383534;32;20040;-83
2022/05/17 03:41:15;;;;;;;;;;;;;;;22.21;48.82;99832.09;4366568;32;19999;-83
2022/05/17 03:43:42;;;;;;;;;;;;;;;22.32;49.66;99834.37;4383691;32;20026;-83
2022/05/17 03:46:09;;;;;;;;;;;;;;;22.25;49.97;99838.97;4383510;32;20269;-85
2022/05/17 03:48:37;;;;;;;;;;;;;;;21.92;50.39;99835.56;4384309;32;20046;-86
2022/05/17 03:51:14;;;;;;;;;;;;;;;21.67;50.35;99831.06;4384069;32;19996;-84
2022/05/17 03:53:41;;;;;;;;;;;;;;;21.42;51.14;99824.78;4383510;32;19974;-85
2022/05/17 03:56:08;;;;;;;;;;;;;;;22.03;49.20;99823.78;4384035;32;19990;-83
2022/05/17 03:58:35;;;;;;;;;;;;;;;21.94;49.56;99824.06;4384874;32;19982;-86
2022/05/17 04:01:03;;;;;;;;;;;;;;;21.93;49.81;99822.34;4384765;32;19996;-88
2022/05/17 04:03:30;;;;;;;;;;;;;;;22.18;48.81;99822.50;4373933;32;20004;-85
2022/05/17 04:05:57;;;;;;;;;;;;;;;22.03;49.41;99817.66;4384431;32;20034;-82
2022/05/17 04:08:26;;;;;;;;;;;;;;;22.19;49.09;99824.22;4385170;32;20045;-85
2022/05/17 04:10:55;;;;;;;;;;;;;;;22.29;49.06;99820.34;4384583;32;19982;-87
2022/05/17 04:13:23;;;;;;;;;;;;;;;22.38;48.74;99818.34;4384751;32;19993;-86
2022/05/17 04:15:50;;;;;;;;;;;;;;;22.37;48.67;99819.28;4384928;32;19987;-89
2022/05/17 04:18:17;;;;;;;;;;;;;;;22.12;49.07;99822.66;4383038;32;20004;-86
2022/05/17 04:20:46;;;;;;;;;;;;;;;22.31;48.55;99822.97;4378401;32;20383;-90
2022/05/17 04:23:13;;;;;;;;;;;;;;;22.55;47.89;99823.91;4383791;32;19983;-84
2022/05/17 04:25:40;;;;;;;;;;;;;;;22.45;48.00;99826.00;4382530;32;20005;-85
2022/05/17 04:28:07;;;;;;;;;;;;;;;22.57;47.70;99822.09;4382999;32;20036;-87
2022/05/17 04:30:35;;;;;;;;;;;;;;;22.62;47.53;99811.37;4383086;32;20010;-87
2022/05/17 04:33:03;;;;;;;;;;;;;;;22.81;47.01;99819.53;4382543;32;20017;-84
2022/05/17 04:35:29;;;;;;;;;;;;;;;22.87;46.49;99816.69;4395217;32;20046;-82
2022/05/17 04:37:57;;;;;;;;;;;;;;;22.91;46.38;99828.84;4355646;32;784210;-83
2022/05/17 04:40:24;;;;;;;;;;;;;;;23.05;45.39;99821.34;4382694;32;20036;-82
2022/05/17 04:42:53;;;;;;;;;;;;;;;22.96;45.90;99821.66;4379672;32;19998;-84
2022/05/17 04:45:21;;;;;;;;;;;;;;;23.07;45.49;99814.25;4350145;32;20359;-85
2022/05/17 04:47:49;;;;;;;;;;;;;;;23.09;46.68;99812.41;4381993;32;20004;-85
2022/05/17 04:50:18;;;;;;;;;;;;;;;22.94;46.74;99818.22;4377320;32;19986;-86
2022/05/17 04:52:47;;;;;;;;;;;;;;;23.04;46.77;99814.34;4377139;32;20002;-85
2022/05/17 04:55:15;;;;;;;;;;;;;;;23.04;47.19;99824.91;4369135;32;20029;-86
2022/05/17 04:57:42;;;;;;;;;;;;;;;22.92;48.11;99825.31;4382664;32;20044;-86
2022/05/17 05:00:17;;;;;;;;;;;;;;;22.98;47.77;99814.56;4383069;32;20423;-86
2022/05/17 05:02:43;;;;;;;;;;;;;;;22.78;48.25;99819.63;4385375;32;19970;-87
2022/05/17 05:05:12;;;;;;;;;;;;;;;22.95;47.82;99817.31;4385244;32;20006;-84
2022/05/17 05:07:42;;;;;;;;;;;;;;;22.96;48.16;99821.66;4385553;32;20813;-87
2022/05/17 05:10:09;;;;;;;;;;;;;;;22.85;48.41;99819.38;4386044;32;19990;-87
2022/05/17 05:12:36;;;;;;;;;;;;;;;22.47;48.38;99828.59;4383479;32;20045;-86
2022/05/17 05:15:04;;;;;;;;;;;;;;;22.78;47.82;99822.28;4385336;32;19982;-82
2022/05/17 05:17:32;;;;;;;;;;;;;;;22.96;46.95;99826.94;4384204;32;19998;-84
2022/05/17 05:20:00;;;;;;;;;;;;;;;23.21;45.93;99827.81;4383138;32;19978;-86
2022/05/17 05:22:29;;;;;;;;;;;;;;;23.13;46.24;99829.00;4385503;32;19983;-85
2022/05/17 05:24:55;;;;;;;;;;;;;;;23.12;45.67;99833.41;4372989;32;19990;-83
2022/05/17 05:27:22;;;;;;;;;;;;;;;23.29;45.31;99829.31;4369133;32;20009;-84
2022/05/17 05:29:52;;;;;;;;;;;;;;;23.33;45.09;99825.66;4369897;32;20022;-85
2022/05/17 05:32:19;;;;;;;;;;;;;;;23.55;44.30;99829.22;4370430;32;19974;-85
2022/05/17 05:34:46;;;;;;;;;;;;;;;23.47;44.95;99828.63;4370070;32;20078;-86
2022/05/17 05:37:13;;;;;;;;;;;;;;;23.64;44.24;99830.63;4370530;32;19978;-85
2022/05/17 05:39:40;;;;;;;;;;;;;;;23.30;45.28;99820.47;4376529;32;20347;-84
2022/05/17 05:42:07;;;;;;;;;;;;;;;23.44;45.18;99818.19;4369792;32;19995;-84
2022/05/17 05:44:34;;;;;;;;;;;;;;;23.60;45.07;99824.59;4370813;32;19990;-83
2022/05/17 05:47:04;;;;;;;;;;;;;;;23.49;44.87;99829.44;4370732;32;19995;-84
2022/05/17 05:49:31;;;;;;;;;;;;;;;23.56;45.32;99830.06;4370426;32;19994;-82
2022/05/17 05:51:58;;;;;;;;;;;;;;;23.75;44.59;99828.50;4370516;32;19990;-85
2022/05/17 05:54:24;;;;;;;;;;;;;;;23.55;45.70;99825.72;4370277;32;20009;-84
2022/05/17 05:56:52;;;;;;;;;;;;;;;23.52;46.30;99820.56;4370276;32;20313;-85
2022/05/17 05:59:19;;;;;;;;;;;;;;;23.58;45.96;99826.47;4360179;32;19996;-80
2022/05/17 06:01:46;;;;;;;;;;;;;;;23.67;45.86;99826.13;4364439;32;20321;-82
2022/05/17 06:04:14;;;;;;;;;;;;;;;23.57;47.30;99829.16;4370105;32;20066;-81
2022/05/17 06:06:42;;;;;;;;;;;;;;;23.66;47.28;99829.66;4362725;32;20009;-80
2022/05/17 06:09:09;;;;;;;;;;;;;;;23.80;46.78;99837.12;4379347;32;19992;-81
2022/05/17 06:11:36;;;;;;;;;;;;;;;23.96;46.54;99832.06;4370389;32;19991;-83
2022/05/17 06:14:03;;;;;;;;;;;;;;;23.84;47.50;99845.78;4370605;32;20037;-81
2022/05/17 06:16:31;;;;;;;;;;;;;;;23.95;47.54;99851.50;4369817;32;19999;-81
2022/05/17 06:19:00;;;;;;;;;;;;;;;24.06;47.36;99844.03;4364686;32;20336;-81
2022/05/17 06:21:27;;;;;;;;;;;;;;;24.24;46.36;99852.16;4370073;32;20042;-82
2022/05/17 06:23:54;;;;;;;;;;;;;;;23.96;47.29;99850.56;4370509;32;20014;-81
2022/05/17 06:26:22;;;;;;;;;;;;;;;23.98;48.14;99851.38;4368487;32;20335;-79
2022/05/17 06:28:50;;;;;;;;;;;;;;;24.09;48.30;99853.59;4390204;32;20017;-80
2022/05/17 06:31:16;;;;;;;;;;;;;;;24.10;47.83;99856.22;4385041;32;20046;-81
2022/05/17 06:33:44;;;;;;;;;;;;;;;24.25;47.95;99852.09;4385612;32;20002;-81
2022/05/17 06:36:14;;;;;;;;;;;;;;;24.42;46.93;99856.75;4384111;32;20016;-81
2022/05/17 06:38:59;;;;;;;;;;;;;;;24.61;46.49;99862.16;4369981;32;19991;-81
2022/05/17 06:41:26;;;;;;;;;;;;;;;24.91;46.21;99859.97;4369835;32;20426;-81
2022/05/17 06:43:53;;;;;;;;;;;;;;;25.18;45.48;99851.81;4368982;32;20048;-82
2022/05/17 06:46:20;;;;;;;;;;;;;;;24.88;47.14;99854.81;4384519;32;20492;-81
2022/05/17 06:48:47;;;;;;;;;;;;;;;25.12;46.46;99867.94;4384998;32;19995;-81
2022/05/17 06:51:14;;;;;;;;;;;;;;;24.73;47.13;99861.63;4384603;32;19974;-81
2022/05/17 06:53:41;;;;;;;;;;;;;;;25.17;46.54;99863.31;4377230;32;20292;-81
2022/05/17 06:56:08;;;;;;;;;;;;;;;25.55;44.86;99860.75;4388097;32;20050;-81
2022/05/17 06:58:35;;;;;;;;;;;;;;;25.81;44.83;99863.09;4383503;32;19982;-82
2022/05/17 07:01:02;;;;;;;;;;;;;;;25.85;45.10;99872.66;4385078;32;19979;-80
2022/05/17 07:03:28;;;;;;;;;;;;;;;26.26;44.01;99863.66;4384186;32;20018;-79
2022/05/17 07:05:56;;;;;;;;;;;;;;;26.46;42.66;99865.38;4384565;32;20006;-79
2022/05/17 07:08:23;;;;;;;;;;;;;;;26.40;42.65;99856.75;4385230;32;19991;-80
2022/05/17 07:13:36;;;;;;;;;;;;;;;26.17;44.78;99859.66;4384558;32;20029;-81
2022/05/17 07:16:03;;;;;;;;;;;;;;;26.19;42.47;99858.63;4384928;32;20358;-80
2022/05/17 07:18:30;;;;;;;;;;;;;;;26.02;43.06;99863.03;4377609;32;19998;-83
2022/05/17 07:20:58;;;;;;;;;;;;;;;26.22;42.37;99870.91;4382751;32;20305;-82
2022/05/17 07:23:25;;;;;;;;;;;;;;;26.09;43.61;99867.12;4384894;32;20053;-82
2022/05/17 07:25:53;;;;;;;;;;;;;;;26.21;42.86;99866.53;4383731;32;20384;-83
2022/05/17 07:28:22;;;;;;;;;;;;;;;26.17;43.13;99867.62;4386372;32;20008;-81
2022/05/17 07:30:49;;;;;;;;;;;;;;;25.98;44.82;99870.28;4395087;32;20038;-81
2022/05/17 07:33:16;;;;;;;;;;;;;;;26.13;43.04;99871.34;4395539;32;20046;-81
2022/05/17 07:35:43;;;;;;;;;;;;;;;25.88;43.86;99869.88;4394530;32;20500;-83
2022/05/17 07:38:10;;;;;;;;;;;;;;;25.65;45.74;99877.97;4395421;32;19986;-82
2022/05/17 07:40:37;;;;;;;;;;;;;;;25.70;45.61;99875.97;4382189;32;20021;-81
2022/05/17 07:43:04;;;;;;;;;;;;;;;26.39;42.85;99884.25;4395377;32;20279;-81
2022/05/17 07:45:31;;;;;;;;;;;;;;;26.43;43.29;99876.97;4380025;32;19998;-82
2022/05/17 07:47:58;;;;;;;;;;;;;;;26.39;43.47;99876.28;4380940;32;20058;-82
2022/05/17 07:50:25;;;;;;;;;;;;;;;26.46;43.02;99878.63;4382692;32;20022;-81
2022/05/17 07:52:52;;;;;;;;;;;;;;;26.35;43.45;99874.69;4379817;32;19990;-81
2022/05/17 07:55:19;;;;;;;;;;;;;;;25.51;46.50;99878.59;4386810;32;19986;-82
2022/05/17 07:57:47;;;;;;;;;;;;;;;26.01;44.40;99883.41;4381001;32;19994;-83
2022/05/17 08:00:15;;;;;;;;;;;;;;;25.50;45.95;99880.41;4402167;32;20870;-85
2022/05/17 08:02:42;;;;;;;;;;;;;;;25.15;47.30;99883.75;4395705;32;20292;-84
2022/05/17 08:05:10;;;;;;;;;;;;;;;25.17;48.05;99879.22;4397680;32;20405;-83
2022/05/17 08:07:37;;;;;;;;;;;;;;;25.46;46.68;99886.78;4397783;32;19981;-83
2022/05/17 08:10:05;;;;;;;;;;;;;;;25.42;46.36;99882.50;4397607;32;20327;-82
2022/05/17 08:12:31;;;;;;;;;;;;;;;25.02;47.88;99888.69;4397375;32;20004;-84
2022/05/17 08:14:58;;;;;;;;;;;;;;;25.15;48.23;99884.59;4397718;32;20042;-84
2022/05/17 08:17:26;;;;;;;;;;;;;;;25.51;45.90;99895.34;4397345;32;21212;-84
2022/05/17 08:19:53;;;;;;;;;;;;;;;25.00;48.22;99895.81;4397437;32;20053;-84
2022/05/17 08:22:19;;;;;;;;;;;;;;;25.37;46.43;99895.13;4396629;32;20320;-82
2022/05/17 08:27:34;;;;;;;;;;;;;;;25.12;46.69;99899.72;4395857;32;19993;-83
2022/05/17 08:30:03;;;;;;;;;;;;;;;25.01;46.95;99897.53;4407129;32;19970;-83
2022/05/17 08:35:16;;;;;;;;;;;;;;;24.69;47.90;99901.53;4392325;32;20020;-81
2022/05/17 08:37:43;;;;;;;;;;;;;;;24.74;47.83;99910.16;4396071;32;20017;-81
2022/05/17 08:40:17;;;;;;;;;;;;;;;24.52;48.30;99904.88;4398037;32;20410;-81
2022/05/17 08:42:53;;;;;;;;;;;;;;;24.67;47.89;99904.25;4409860;32;20002;-83
2022/05/17 08:45:21;;;;;;;;;;;;;;;24.80;47.60;99910.75;4412343;32;19986;-85
2022/05/17 08:47:51;;;;;;;;;;;;;;;24.36;48.86;99912.50;4399761;32;19979;-89
2022/05/17 08:50:32;;;;;;;;;;;;;;;24.60;47.57;99918.63;4399832;32;19974;-87
2022/05/17 08:52:59;;;;;;;;;;;;;;;24.26;48.85;99914.66;4400548;32;19993;-87
2022/05/17 08:55:28;;;;;;;;;;;;;;;24.23;48.94;99920.06;4399985;32;20000;-91
2022/05/17 08:57:58;;;;;;;;;;;;;;;24.09;50.42;99915.31;4399382;32;20046;-89
2022/05/17 09:00:28;;;;;;;;;;;;;;;23.99;52.77;99924.50;4399720;32;19986;-83
2022/05/17 09:02:57;;;;;;;;;;;;;;;23.77;55.16;99931.50;4401546;32;20037;-80
2022/05/17 09:05:28;;;;;;;;;;;;;;;23.53;56.83;99934.09;4400916;32;19986;-81
2022/05/17 09:08:12;;;;;;;;;;;;;;;23.04;58.40;99935.81;4399627;32;20013;-80
2022/05/17 09:10:43;;;;;;;;;;;;;;;23.30;57.44;99936.69;4400874;32;19987;-80
2022/05/17 09:13:12;;;;;;;;;;;;;;;23.06;58.79;99933.97;4393387;32;20403;-81
2022/05/17 09:15:40;;;;;;;;;;;;;;;23.10;59.22;99940.91;4411065;32;21318;-82
2022/05/17 09:18:11;;;;;;;;;;;;;;;23.33;57.76;99920.75;4399021;32;20027;-81
2022/05/17 09:20:38;;;;;;;;;;;;;;;23.23;58.36;99933.41;4401535;32;20030;-81
2022/05/17 09:23:06;;;;;;;;;;;;;;;23.29;59.11;99934.94;4400634;32;20028;-81
2022/05/17 09:25:48;;;;;;;;;;;;;;;23.18;59.46;99933.56;4400845;32;20057;-82
2022/05/17 09:28:20;;;;;;;;;;;;;;;23.05;61.64;99924.31;4400074;32;20004;-82
2022/05/17 09:30:47;;;;;;;;;;;;;;;23.32;60.07;99929.56;4400974;32;19990;-83
2022/05/17 09:33:18;;;;;;;;;;;;;;;23.55;59.84;99926.13;4395230;32;20042;-82
2022/05/17 09:35:57;;;;;;;;;;;;;;;23.40;61.19;99927.53;4399472;32;20023;-82
2022/05/17 09:38:24;;;;;;;;;;;;;;;23.62;60.18;99922.34;4400985;32;20008;-82
2022/05/17 09:40:56;;;;;;;;;;;;;;;23.64;60.01;99916.09;4396181;32;20335;-81
2022/05/17 09:43:24;;;;;;;;;;;;;;;23.73;59.27;99919.34;4411190;32;20016;-82
2022/05/17 09:46:00;;;;;;;;;;;;;;;23.62;59.68;99914.41;4400677;32;20275;-82
2022/05/17 09:54:09;;;;;;;;;;;;;;;23.65;58.26;99907.25;4399846;32;20308;-82
2022/05/17 09:56:38;;;;;;;;;;;;;;;23.49;59.62;99913.16;4399858;32;20494;-83
2022/05/17 09:59:19;;;;;;;;;;;;;;;23.78;58.10;99912.13;4393977;32;20057;-82
2022/05/17 10:01:46;;;;;;;;;;;;;;;23.63;58.03;99911.69;4408601;32;20017;-82
2022/05/17 10:04:17;;;;;;;;;;;;;;;23.57;59.40;99914.56;4399429;32;19990;-83
2022/05/17 10:06:48;;;;;;;;;;;;;;;23.72;58.90;99907.91;4398372;32;19986;-82
2022/05/17 10:09:32;;;;;;;;;;;;;;;24.00;57.03;99907.75;4399896;32;19986;-81
2022/05/17 10:12:01;;;;;;;;;;;;;;;23.87;58.74;99903.84;4411484;32;20698;-82
2022/05/17 10:14:31;;;;;;;;;;;;;;;23.89;58.17;99899.34;4399443;32;19986;-81
2022/05/17 10:17:08;;;;;;;;;;;;;;;23.98;57.38;99898.12;4399395;32;20024;-79
2022/05/17 10:19:41;;;;;;;;;;;;;;;24.09;55.59;99902.09;4399344;32;19986;-82
2022/05/17 10:22:16;;;;;;;;;;;;;;;24.05;56.45;99905.75;4400923;32;20316;-82
2022/05/17 10:24:52;;;;;;;;;;;;;;;24.27;54.51;99899.66;4398936;32;20425;-82
2022/05/17 10:27:21;;;;;;;;;;;;;;;24.13;55.51;99898.41;4399142;32;19974;-82
2022/05/17 10:29:55;;;;;;;;;;;;;;;24.14;54.54;99897.47;4399401;32;19981;-81
2022/05/17 10:32:33;;;;;;;;;;;;;;;24.03;56.72;99897.03;4398692;32;20034;-81
2022/05/17 10:35:08;;;;;;;;;;;;;;;24.15;55.15;99898.34;4395370;32;20363;-81
2022/05/17 10:37:36;;;;;;;;;;;;;;;24.25;55.25;99896.19;4398265;32;19996;-81
2022/05/17 10:40:04;;;;;;;;;;;;;;;24.43;53.39;99895.50;4385918;32;19978;-83
2022/05/17 10:42:31;;;;;;;;;;;;;;;24.37;54.32;99901.00;4396643;32;20116;-82
2022/05/17 10:44:58;;;;;;;;;;;;;;;24.16;56.17;99901.87;4398992;32;19986;-81
2022/05/17 10:47:25;;;;;;;;;;;;;;;24.32;54.83;99903.84;4399106;32;20435;-81
2022/05/17 10:49:57;;;;;;;;;;;;;;;24.35;54.01;99902.87;4399459;32;20035;-80
2022/05/17 10:52:33;;;;;;;;;;;;;;;24.26;55.14;99905.88;4399343;32;20255;-81
2022/05/17 10:55:04;;;;;;;;;;;;;;;24.45;55.69;99904.25;4398749;32;20029;-82
2022/05/17 10:57:50;;;;;;;;;;;;;;;24.56;53.57;99906.44;4398521;32;19990;-82
2022/05/17 11:00:18;;;;;;;;;;;;;;;24.40;56.02;99898.22;4398288;32;20312;-82
2022/05/17 11:02:48;;;;;;;;;;;;;;;24.37;55.67;99901.00;4400382;32;19994;-82
2022/05/17 11:05:34;;;;;;;;;;;;;;;24.46;55.70;99900.66;4399978;32;20312;-82
2022/05/17 11:08:10;;;;;;;;;;;;;;;24.57;55.98;99898.47;4400060;32;19993;-82
2022/05/17 11:10:38;;;;;;;;;;;;;;;24.46;56.26;99894.53;4399897;32;20729;-82
2022/05/17 11:13:05;;;;;;;;;;;;;;;24.65;55.64;99899.94;4400184;32;19974;-81
2022/05/17 11:15:38;;;;;;;;;;;;;;;24.68;55.51;99891.88;4399853;32;19986;-80
2022/05/17 11:18:14;;;;;;;;;;;;;;;24.79;55.19;99892.25;4386203;32;20001;-83
2022/05/17 11:21:09;;;;;;;;;;;;;;;24.87;54.67;99884.88;4400566;32;20008;-82
2022/05/17 11:24:00;;;;;;;;;;;;;;;24.77;56.60;99883.53;4398305;32;19994;-83
2022/05/17 11:26:50;;;;;;;;;;;;;;;24.81;55.93;99890.44;4378916;32;19987;-81
2022/05/17 11:29:35;;;;;;;;;;;;;;;24.87;55.08;99884.88;4398771;32;20032;-82
2022/05/17 11:32:14;;;;;;;;;;;;;;;24.90;53.41;99873.31;4400117;32;20000;-82
2022/05/17 11:34:42;;;;;;;;;;;;;;;25.14;52.33;99872.25;4399286;32;19994;-82
2022/05/17 11:37:29;;;;;;;;;;;;;;;25.22;53.07;99874.59;4399865;32;19996;-84
2022/05/17 11:39:56;;;;;;;;;;;;;;;25.31;53.08;99868.03;4399994;32;19994;-81
2022/05/17 11:42:26;;;;;;;;;;;;;;;25.33;51.18;99861.72;4399683;32;20027;-82
2022/05/17 11:44:53;;;;;;;;;;;;;;;25.25;53.24;99861.22;4400377;32;19993;-81
2022/05/17 11:47:31;;;;;;;;;;;;;;;25.16;52.48;99858.97;4398122;32;19982;-81
2022/05/17 11:50:18;;;;;;;;;;;;;;;25.12;53.76;99862.66;4398444;32;20347;-82
2022/05/17 11:52:47;;;;;;;;;;;;;;;25.15;52.74;99857.25;4400292;32;19986;-82
2022/05/17 11:55:23;;;;;;;;;;;;;;;25.05;53.15;99852.31;4399007;32;20028;-84
2022/05/17 11:57:49;;;;;;;;;;;;;;;24.89;54.37;99851.25;4390811;32;21104;-83
2022/05/17 12:00:24;;;;;;;;;;;;;;;25.11;53.80;99847.66;4399274;32;19994;-83
2022/05/17 12:02:53;;;;;;;;;;;;;;;24.95;55.58;99851.00;4400332;32;19973;-84
2022/05/17 12:05:38;;;;;;;;;;;;;;;25.18;51.70;99846.53;4397681;32;20041;-84
2022/05/17 12:08:44;;;;;;;;;;;;;;;25.35;49.78;99853.72;4399844;32;19978;-82
2022/05/17 12:11:14;;;;;;;;;;;;;;;25.04;51.35;99845.28;4351881;32;20021;-86
2022/05/17 12:13:56;;;;;;;;;;;;;;;25.31;50.04;99850.34;4352400;32;20006;-82
2022/05/17 12:16:28;;;;;;;;;;;;;;;25.38;49.49;99849.13;4378139;32;20042;-88
2022/05/17 12:19:06;;;;;;;;;;;;;;;25.16;51.88;99848.37;4391800;32;19994;-83
2022/05/17 12:21:42;;;;;;;;;;;;;;;25.37;52.46;99842.13;4403092;32;20429;-83
2022/05/17 12:24:28;;;;;;;;;;;;;;;25.65;49.26;99840.84;4397116;32;19990;-82
2022/05/17 12:26:55;;;;;;;;;;;;;;;25.37;49.78;99839.47;4399080;32;19998;-84
2022/05/17 12:32:23;;;;;;;;;;;;;;;25.16;51.90;99837.78;4380230;32;20042;-82
2022/05/17 12:34:53;;;;;;;;;;;;;;;24.97;53.57;99833.22;4397676;32;19994;-85
2022/05/17 12:37:23;;;;;;;;;;;;;;;25.05;53.53;99836.44;4393408;32;20053;-85
2022/05/17 12:45:25;;;;;;;;;;;;;;;25.22;52.56;99826.91;4386169;32;19997;-82
2022/05/17 12:47:59;;;;;;;;;;;;;;;25.22;53.18;99829.56;4388164;32;19982;-83
2022/05/17 12:50:40;;;;;;;;;;;;;;;25.24;51.01;99823.25;4386192;32;20014;-84
2022/05/17 12:53:18;;;;;;;;;;;;;;;24.97;50.64;99825.28;4378904;32;19982;-82
2022/05/17 12:55:56;;;;;;;;;;;;;;;25.16;51.83;99822.72;4393182;32;20025;-84
2022/05/17 12:58:24;;;;;;;;;;;;;;;25.22;49.56;99811.00;4378523;32;19978;-86
2022/05/17 13:00:55;;;;;;;;;;;;;;;25.50;48.26;99808.81;4377988;32;19983;-82
2022/05/17 13:03:23;;;;;;;;;;;;;;;25.17;49.83;99818.28;4379891;32;19999;-87
2022/05/17 13:05:51;;;;;;;;;;;;;;;24.98;51.85;99813.78;4378138;32;19982;-85
2022/05/17 13:08:27;;;;;;;;;;;;;;;25.15;49.17;99810.41;4374805;32;20042;-81
2022/05/17 13:11:04;;;;;;;;;;;;;;;25.10;48.79;99808.88;4386284;32;20427;-86
2022/05/17 13:13:32;;;;;;;;;;;;;;;25.04;49.20;99810.00;4376607;32;20018;-81
2022/05/17 13:16:00;;;;;;;;;;;;;;;24.97;49.63;99801.44;4376605;32;20002;-82
2022/05/17 13:18:32;;;;;;;;;;;;;;;24.91;50.67;99807.00;4388850;32;19979;-81
2022/05/17 13:20:59;;;;;;;;;;;;;;;25.04;50.31;99810.00;4380077;32;20283;-82
2022/05/17 13:23:27;;;;;;;;;;;;;;;25.11;51.00;99802.63;4388233;32;20012;-82
2022/05/17 13:25:55;;;;;;;;;;;;;;;25.21;49.51;99798.69;4394934;32;20004;-81